createdAt,value
2018-04-11T00:00:53.459Z,86.17
2018-04-11T00:03:22.503Z,85.22
2018-04-11T00:05:51.580Z,85.98
2018-04-11T00:08:20.658Z,84.99
2018-04-11T00:13:25.381Z,85.54
2018-04-11T00:18:30.130Z,84.69
2018-04-11T00:21:00.147Z,85.04
2018-04-11T00:23:29.214Z,85.35
2018-04-11T00:25:58.376Z,86.62
2018-04-11T00:28:38.527Z,85.95
2018-04-11T00:33:45.172Z,85.90
2018-04-11T00:36:14.255Z,85.49
2018-04-11T00:38:43.326Z,84.90
2018-04-11T00:41:12.754Z,85.62
2018-04-11T00:43:41.807Z,86.40
2018-04-11T00:46:10.864Z,86.24
2018-04-11T00:48:39.952Z,85.85
2018-04-11T00:51:09.142Z,86.14
2018-04-11T00:53:38.193Z,85.85
2018-04-11T00:58:42.941Z,85.41
2018-04-11T01:01:11.991Z,84.90
2018-04-11T01:06:17.796Z,84.42
2018-04-11T01:08:46.841Z,84.45
2018-04-11T01:13:51.679Z,83.95
2018-04-11T01:16:20.774Z,85.02
2018-04-11T01:18:49.970Z,85.66
2018-04-11T01:21:19.030Z,85.38
2018-04-11T01:23:48.092Z,85.64
2018-04-11T01:26:19.098Z,86.67
2018-04-11T01:28:48.155Z,86.10
2018-04-11T01:31:17.213Z,86.02
2018-04-11T01:33:46.256Z,85.87
2018-04-11T01:36:15.325Z,87.42
2018-04-11T01:38:44.371Z,86.65
2018-04-11T01:41:14.396Z,86.86
2018-04-11T01:43:43.450Z,86.21
2018-04-11T01:46:12.519Z,86.42
2018-04-11T01:48:41.596Z,85.27
2018-04-11T01:51:10.633Z,84.97
2018-04-11T01:53:39.784Z,86.20
2018-04-11T01:56:08.816Z,86.12
2018-04-11T01:58:37.943Z,86.21
2018-04-11T02:01:07.016Z,85.11
2018-04-11T02:03:36.085Z,86.22
2018-04-11T02:06:05.137Z,86.99
2018-04-11T02:08:34.183Z,87.21
2018-04-11T02:11:03.295Z,88.43
2018-04-11T02:13:32.359Z,88.83
2018-04-11T02:16:05.280Z,89.86
2018-04-11T02:18:34.316Z,89.46
2018-04-11T02:21:04.280Z,90.08
2018-04-11T02:23:33.330Z,89.85
2018-04-11T02:26:02.934Z,90.04
2018-04-11T02:28:31.980Z,90.03
2018-04-11T02:31:01.038Z,90.33
2018-04-11T02:33:30.098Z,89.88
2018-04-11T02:36:00.335Z,91.62
2018-04-11T02:38:29.419Z,92.54
2018-04-11T02:40:58.475Z,92.87
2018-04-11T02:43:27.523Z,92.32
2018-04-11T02:45:57.573Z,92.73
2018-04-11T02:51:03.636Z,90.19
2018-04-11T02:53:32.699Z,91.42
2018-04-11T02:56:01.812Z,90.86
2018-04-11T02:58:30.860Z,90.84
2018-04-11T03:01:00.835Z,90.60
2018-04-11T03:03:29.908Z,90.53
2018-04-11T03:05:58.998Z,90.21
2018-04-11T03:08:28.143Z,88.95
2018-04-11T03:10:59.194Z,90.13
2018-04-11T03:13:29.194Z,90.83
2018-04-11T03:15:58.351Z,91.73
2018-04-11T03:21:03.082Z,91.96
2018-04-11T03:23:32.171Z,92.37
2018-04-11T03:26:01.214Z,92.23
2018-04-11T03:31:06.085Z,90.70
2018-04-11T03:33:35.114Z,91.47
2018-04-11T03:36:05.113Z,90.85
2018-04-11T03:38:34.328Z,92.29
2018-04-11T03:41:03.379Z,93.30
2018-04-11T03:43:32.416Z,94.20
2018-04-11T03:46:01.509Z,94.58
2018-04-11T03:48:30.592Z,95.08
2018-04-11T03:51:00.702Z,95.38
2018-04-11T03:56:08.615Z,95.79
2018-04-11T03:58:37.668Z,96.37
2018-04-11T04:01:07.710Z,97.09
2018-04-11T04:03:36.754Z,97.02
2018-04-11T04:08:41.550Z,95.66
2018-04-11T04:11:11.608Z,95.44
2018-04-11T04:13:58.879Z,97.11
2018-04-11T04:16:49.214Z,98.76
2018-04-11T04:19:36.145Z,99.53
2018-04-11T04:22:05.199Z,99.64
2018-04-11T04:24:34.257Z,99.76
2018-04-11T04:27:03.319Z,100.00
2018-04-11T04:29:32.468Z,100.00
2018-04-11T04:32:01.571Z,100.00
2018-04-11T04:34:30.614Z,100.00
2018-04-11T04:36:59.672Z,100.00
2018-04-11T04:42:04.953Z,100.00
2018-04-11T04:44:34.162Z,100.00
2018-04-11T04:47:03.250Z,100.00
2018-04-11T04:49:32.301Z,100.00
2018-04-11T04:52:01.479Z,100.00
2018-04-11T04:54:30.539Z,100.00
2018-04-11T04:56:59.610Z,100.00
2018-04-11T04:59:28.716Z,99.87
2018-04-11T05:01:58.977Z,99.94
2018-04-11T05:07:03.947Z,97.67
2018-04-11T05:09:33.006Z,98.16
2018-04-11T05:12:03.013Z,97.99
2018-04-11T05:14:32.382Z,97.71
2018-04-11T05:17:01.415Z,97.41
2018-04-11T05:19:31.430Z,97.85
2018-04-11T05:22:01.305Z,98.21
2018-04-11T05:24:30.370Z,98.19
2018-04-11T05:26:59.639Z,97.90
2018-04-11T05:29:29.060Z,96.90
2018-04-11T05:31:58.083Z,97.49
2018-04-11T05:34:28.078Z,97.61
2018-04-11T05:36:57.135Z,98.25
2018-04-11T05:39:26.184Z,98.71
2018-04-11T05:41:55.850Z,98.42
2018-04-11T05:44:24.903Z,97.69
2018-04-11T05:46:53.974Z,97.19
2018-04-11T05:49:23.472Z,96.40
2018-04-11T05:54:28.263Z,96.19
2018-04-11T05:56:57.351Z,95.64
2018-04-11T05:59:26.585Z,95.67
2018-04-11T06:01:55.635Z,95.08
2018-04-11T06:04:25.052Z,94.52
2018-04-11T06:06:54.106Z,94.71
2018-04-11T06:09:23.166Z,93.81
2018-04-11T06:11:52.714Z,93.40
2018-04-11T06:14:21.770Z,93.49
2018-04-11T06:16:51.040Z,92.73
2018-04-11T06:19:20.090Z,92.41
2018-04-11T06:21:49.136Z,91.79
2018-04-11T06:24:18.876Z,90.61
2018-04-11T06:26:47.935Z,89.48
2018-04-11T06:29:17.561Z,90.36
2018-04-11T06:31:46.612Z,89.85
2018-04-11T06:34:15.867Z,88.99
2018-04-11T06:36:45.063Z,87.20
2018-04-11T06:39:14.097Z,86.45
2018-04-11T06:41:43.570Z,87.24
2018-04-11T06:44:12.638Z,86.96
2018-04-11T06:46:42.235Z,84.87
2018-04-11T06:51:47.126Z,86.83
2018-04-11T06:54:16.844Z,85.27
2018-04-11T06:56:45.885Z,84.30
2018-04-11T07:01:50.662Z,83.18
2018-04-11T07:04:20.038Z,83.17
2018-04-11T07:06:49.762Z,82.81
2018-04-11T07:09:18.991Z,81.88
2018-04-11T07:11:48.058Z,82.35
2018-04-11T07:14:17.136Z,82.54
2018-04-11T07:16:46.932Z,80.47
2018-04-11T07:19:15.970Z,79.37
2018-04-11T07:21:45.273Z,78.21
2018-04-11T07:26:50.588Z,79.06
2018-04-11T07:29:19.638Z,77.65
2018-04-11T07:31:48.967Z,73.76
2018-04-11T07:34:18.005Z,74.50
2018-04-11T07:36:47.281Z,72.66
2018-04-11T07:41:52.785Z,73.10
2018-04-11T07:44:21.856Z,74.03
2018-04-11T07:46:50.904Z,71.19
2018-04-11T07:49:20.005Z,70.24
2018-04-11T07:51:49.040Z,68.54
2018-04-11T07:56:53.922Z,69.79
2018-04-11T07:59:23.448Z,68.51
2018-04-11T08:04:28.219Z,62.91
2018-04-11T08:06:57.254Z,66.06
2018-04-11T08:09:26.408Z,62.51
2018-04-11T08:11:55.430Z,64.19
2018-04-11T08:14:25.923Z,65.04
2018-04-11T08:16:54.979Z,61.70
2018-04-11T08:24:35.540Z,64.40
2018-04-11T08:29:40.430Z,59.86
2018-04-11T08:32:13.369Z,61.35
2018-04-11T08:37:17.939Z,58.55
2018-04-11T08:39:47.634Z,58.94
2018-04-11T08:42:16.681Z,56.25
2018-04-11T08:44:46.194Z,56.89
2018-04-11T08:47:15.267Z,56.05
2018-04-11T08:49:44.308Z,55.64
2018-04-11T08:52:13.393Z,55.25
2018-04-11T08:54:43.019Z,55.83
2018-04-11T08:57:12.062Z,52.67
2018-04-11T08:59:41.134Z,51.50
2018-04-11T09:02:11.933Z,49.83
2018-04-11T09:04:41.008Z,48.11
2018-04-11T09:07:10.614Z,39.28
2018-04-11T09:09:39.661Z,41.14
2018-04-11T09:12:09.157Z,42.72
2018-04-11T09:14:38.206Z,38.83
2018-04-11T09:17:07.358Z,40.37
2018-04-11T09:19:36.472Z,37.31
2018-04-11T09:22:05.530Z,32.48
2018-04-11T09:24:35.163Z,32.91
2018-04-11T09:29:46.380Z,34.69
2018-04-11T09:34:58.099Z,31.52
2018-04-11T09:37:31.382Z,31.63
2018-04-11T09:40:04.998Z,28.98
2018-04-11T09:42:34.020Z,28.23
2018-04-11T09:45:07.718Z,30.38
2018-04-11T09:47:37.166Z,29.82
2018-04-11T09:50:09.899Z,24.89
2018-04-11T09:52:42.447Z,30.26
2018-04-11T09:57:56.167Z,25.88
2018-04-11T10:00:30.696Z,27.95
2018-04-11T10:03:08.696Z,30.10
2018-04-11T10:05:38.375Z,24.62
2018-04-11T10:08:07.426Z,26.67
2018-04-11T10:10:37.019Z,24.82
2018-04-11T10:15:42.267Z,22.77
2018-04-11T10:19:18.795Z,21.69
2018-04-11T10:21:47.866Z,24.70
2018-04-11T10:24:18.207Z,25.73
2018-04-11T10:26:47.289Z,21.91
2018-04-11T10:29:16.982Z,25.92
2018-04-11T10:36:58.007Z,21.54
2018-04-11T10:42:05.016Z,20.66
2018-04-11T10:44:34.051Z,20.20
2018-04-11T10:47:04.062Z,21.51
2018-04-11T10:49:33.443Z,20.79
2018-04-11T10:52:02.479Z,18.18
2018-04-11T10:57:07.338Z,19.93
2018-04-11T10:59:38.177Z,20.61
2018-04-11T11:02:10.447Z,22.95
2018-04-11T11:07:15.719Z,21.52
2018-04-11T11:09:45.295Z,21.84
2018-04-11T11:12:14.506Z,20.76
2018-04-11T11:17:19.372Z,20.56
2018-04-11T11:22:24.343Z,25.60
2018-04-11T11:27:29.187Z,26.27
2018-04-11T11:29:58.289Z,22.36
2018-04-11T11:32:27.337Z,22.85
2018-04-11T11:34:57.295Z,19.86
2018-04-11T11:37:26.357Z,20.58
2018-04-11T11:39:55.419Z,19.67
2018-04-11T11:42:24.477Z,22.91
2018-04-11T11:44:54.037Z,25.67
2018-04-11T11:47:23.100Z,29.34
2018-04-11T11:49:52.619Z,24.56
2018-04-11T11:52:22.972Z,21.88
2018-04-11T11:54:53.027Z,20.33
2018-04-11T11:57:22.139Z,18.63
2018-04-11T11:59:52.852Z,18.07
2018-04-11T12:02:21.921Z,17.95
2018-04-11T12:04:51.273Z,16.59
2018-04-11T12:07:24.607Z,16.88
2018-04-11T12:09:57.995Z,16.39
2018-04-11T12:12:29.439Z,16.29
2018-04-11T12:15:02.562Z,17.90
2018-04-11T12:20:12.331Z,16.54
2018-04-11T12:22:45.894Z,15.47
2018-04-11T12:25:14.926Z,17.47
2018-04-11T12:27:43.999Z,17.93
2018-04-11T12:30:13.681Z,16.74
2018-04-11T12:32:42.774Z,16.64
2018-04-11T12:35:12.241Z,17.30
2018-04-11T12:37:41.303Z,17.01
2018-04-11T12:40:10.742Z,16.49
2018-04-11T12:42:39.816Z,16.31
2018-04-11T12:45:08.926Z,16.81
2018-04-11T12:47:38.437Z,18.83
2018-04-11T12:50:07.512Z,17.12
2018-04-11T12:52:37.119Z,15.66
2018-04-11T12:55:06.312Z,15.09
2018-04-11T13:00:11.223Z,12.91
2018-04-11T13:02:40.270Z,15.42
2018-04-11T13:05:09.668Z,18.86
2018-04-11T13:10:14.623Z,14.97
2018-04-11T13:12:44.720Z,14.62
2018-04-11T13:17:49.639Z,13.73
2018-04-11T13:20:19.312Z,14.36
2018-04-11T13:22:48.366Z,14.86
2018-04-11T13:25:17.416Z,15.74
2018-04-11T13:27:46.464Z,14.21
2018-04-11T13:30:15.514Z,16.07
2018-04-11T13:32:45.058Z,16.17
2018-04-11T13:35:14.083Z,18.44
2018-04-11T13:37:43.794Z,17.01
2018-04-11T13:40:12.855Z,16.58
2018-04-11T13:42:41.955Z,15.89
2018-04-11T13:45:10.958Z,16.22
2018-04-11T13:47:40.649Z,16.62
2018-04-11T13:50:10.234Z,18.63
2018-04-11T13:55:20.704Z,18.73
2018-04-11T13:57:54.425Z,18.41
2018-04-11T14:00:27.319Z,19.81
2018-04-11T14:02:59.293Z,20.33
2018-04-11T14:05:32.124Z,20.75
2018-04-11T14:08:04.920Z,23.31
2018-04-11T14:10:37.578Z,22.32
2018-04-11T14:13:10.103Z,23.09
2018-04-11T14:18:19.554Z,26.64
2018-04-11T14:20:52.725Z,25.74
2018-04-11T14:23:26.496Z,28.04
2018-04-11T14:25:55.798Z,27.49
2018-04-11T14:28:24.851Z,26.87
2018-04-11T14:33:30.523Z,23.96
2018-04-11T14:35:59.582Z,21.30
2018-04-11T14:41:04.550Z,18.66
2018-04-11T14:43:34.099Z,20.19
2018-04-11T14:46:03.174Z,19.61
2018-04-11T14:48:32.215Z,21.12
2018-04-11T14:51:01.271Z,24.07
2018-04-11T14:56:06.646Z,24.02
2018-04-11T14:58:36.198Z,25.76
2018-04-11T15:01:05.228Z,27.55
2018-04-11T15:03:34.303Z,28.37
2018-04-11T15:08:39.492Z,24.59
2018-04-11T15:11:08.543Z,24.92
2018-04-11T15:13:38.104Z,24.06
2018-04-11T15:16:07.194Z,25.57
2018-04-11T15:18:36.241Z,24.55
2018-04-11T15:21:05.974Z,25.11
2018-04-11T15:23:34.998Z,28.85
2018-04-11T15:26:04.339Z,28.29
2018-04-11T15:28:33.384Z,27.71
2018-04-11T15:31:02.557Z,28.34
2018-04-11T15:33:32.468Z,26.74
2018-04-11T15:38:37.662Z,27.60
2018-04-11T15:41:06.688Z,26.27
2018-04-11T15:43:36.215Z,25.90
2018-04-11T15:48:42.695Z,24.40
2018-04-11T15:51:11.729Z,24.50
2018-04-11T15:53:40.785Z,25.12
2018-04-11T15:56:09.885Z,26.12
2018-04-11T15:58:39.479Z,25.91
2018-04-11T16:01:08.553Z,25.68
2018-04-11T16:03:37.953Z,27.47
2018-04-11T16:08:42.840Z,26.81
2018-04-11T16:11:12.988Z,29.34
2018-04-11T16:13:45.607Z,29.81
2018-04-11T16:16:16.131Z,31.57
2018-04-11T16:18:46.683Z,34.58
2018-04-11T16:21:16.281Z,32.24
2018-04-11T16:23:45.341Z,32.19
2018-04-11T16:26:14.502Z,32.57
2018-04-11T16:28:44.092Z,33.61
2018-04-11T16:31:13.217Z,36.47
2018-04-11T16:33:42.815Z,37.19
2018-04-11T16:36:11.868Z,36.23
2018-04-11T16:38:41.273Z,36.62
2018-04-11T16:41:10.791Z,37.42
2018-04-11T16:43:39.858Z,37.19
2018-04-11T16:46:09.354Z,36.47
2018-04-11T16:48:38.404Z,39.02
2018-04-11T16:51:07.832Z,38.69
2018-04-11T16:53:37.259Z,39.20
2018-04-11T16:56:06.288Z,41.19
2018-04-11T16:58:35.359Z,42.12
2018-04-11T17:01:04.386Z,41.12
2018-04-11T17:03:33.451Z,40.68
2018-04-11T17:06:02.842Z,43.11
2018-04-11T17:08:35.172Z,43.72
2018-04-11T17:11:04.226Z,43.79
2018-04-11T17:13:33.382Z,43.73
2018-04-11T17:16:02.438Z,43.14
2018-04-11T17:18:31.850Z,42.29
2018-04-11T17:21:18.801Z,43.57
2018-04-11T17:24:08.166Z,44.67
2018-04-11T17:26:54.988Z,46.23
2018-04-11T17:29:42.819Z,47.11
2018-04-11T17:34:48.197Z,46.52
2018-04-11T17:37:17.250Z,48.19
2018-04-11T17:39:46.313Z,48.01
2018-04-11T17:42:15.371Z,49.19
2018-04-11T17:44:44.734Z,48.98
2018-04-11T17:47:13.816Z,49.75
2018-04-11T17:49:42.868Z,49.39
2018-04-11T17:52:12.285Z,50.89
2018-04-11T17:54:41.557Z,50.99
2018-04-11T17:59:46.376Z,51.44
2018-04-11T18:02:17.719Z,52.90
2018-04-11T18:04:46.754Z,51.55
2018-04-11T18:07:15.813Z,53.46
2018-04-11T18:09:44.901Z,52.64
2018-04-11T18:12:15.181Z,52.49
2018-04-11T18:14:44.226Z,53.20
2018-04-11T18:19:50.251Z,53.27
2018-04-11T18:24:55.201Z,54.03
2018-04-11T18:27:24.498Z,53.06
2018-04-11T18:32:29.382Z,55.25
2018-04-11T18:35:00.471Z,55.72
2018-04-11T18:37:29.522Z,56.03
2018-04-11T18:39:58.599Z,56.38
2018-04-11T18:42:27.664Z,56.25
2018-04-11T18:44:56.941Z,56.16
2018-04-11T18:47:26.013Z,55.74
2018-04-11T18:49:55.099Z,55.81
2018-04-11T18:52:24.139Z,55.44
2018-04-11T18:54:54.171Z,55.93
2018-04-11T18:59:59.029Z,56.51
2018-04-11T19:07:39.586Z,55.78
2018-04-11T19:10:08.727Z,57.20
2018-04-11T19:12:37.789Z,57.44
2018-04-11T19:15:07.035Z,57.14
2018-04-11T19:17:36.137Z,56.19
2018-04-11T19:20:05.249Z,56.51
2018-04-11T19:25:10.491Z,57.27
2018-04-11T19:27:39.525Z,56.00
2018-04-11T19:30:21.084Z,56.66
2018-04-11T19:32:51.016Z,57.44
2018-04-11T19:35:20.114Z,57.92
2018-04-11T19:37:49.214Z,57.27
2018-04-11T19:40:18.271Z,56.84
2018-04-11T19:42:47.329Z,57.37
2018-04-11T19:45:16.388Z,58.17
2018-04-11T19:47:45.537Z,57.34
2018-04-11T19:50:14.676Z,58.13
2018-04-11T19:52:44.625Z,58.21
2018-04-11T19:55:13.779Z,58.25
2018-04-11T19:57:42.874Z,58.23
2018-04-11T20:00:12.019Z,58.87
2018-04-11T20:02:48.497Z,58.13
2018-04-11T20:05:29.549Z,58.83
2018-04-11T20:07:59.609Z,58.73
2018-04-11T20:10:28.731Z,58.62
2018-04-11T20:12:57.809Z,58.80
2018-04-11T20:18:02.722Z,59.41
2018-04-11T20:20:32.018Z,57.68
2018-04-11T20:23:01.377Z,59.23
2018-04-11T20:25:30.515Z,59.90
2018-04-11T20:27:59.932Z,58.82
2018-04-11T20:30:29.051Z,59.78
2018-04-11T20:35:34.019Z,60.38
2018-04-11T20:38:05.501Z,58.78
2018-04-11T20:40:34.736Z,60.06
2018-04-11T20:43:03.809Z,59.20
2018-04-11T20:45:34.440Z,58.86
2018-04-11T20:48:03.635Z,59.59
2018-04-11T20:50:32.726Z,60.36
2018-04-11T20:53:02.718Z,60.40
2018-04-11T20:55:32.006Z,61.32
2018-04-11T20:58:03.132Z,61.13
2018-04-11T21:00:32.202Z,61.12
2018-04-11T21:05:37.232Z,61.23
2018-04-11T21:08:10.804Z,61.55
2018-04-11T21:10:40.002Z,61.38
2018-04-11T21:13:09.099Z,61.38
2018-04-11T21:15:38.166Z,61.46
2018-04-11T21:18:07.914Z,61.59
2018-04-11T21:20:36.970Z,61.62
2018-04-11T21:25:41.827Z,61.25
2018-04-11T21:28:11.875Z,62.73
2018-04-11T21:30:41.022Z,63.01
2018-04-11T21:33:10.186Z,63.38
2018-04-11T21:35:39.256Z,62.73
2018-04-11T21:38:08.423Z,63.53
2018-04-11T21:40:37.562Z,62.67
2018-04-11T21:43:07.632Z,63.98
2018-04-11T21:45:36.680Z,63.13
2018-04-11T21:48:05.750Z,63.29
2018-04-11T21:50:34.986Z,62.77
2018-04-11T21:53:05.104Z,62.75
2018-04-11T21:55:34.198Z,62.84
2018-04-11T22:00:39.022Z,63.10
2018-04-11T22:03:11.379Z,64.56
2018-04-11T22:05:40.471Z,64.78
2018-04-11T22:08:09.544Z,63.63
2018-04-11T22:10:38.621Z,65.01
2018-04-11T22:13:07.806Z,64.12
2018-04-11T22:15:37.003Z,65.01
2018-04-11T22:20:41.851Z,65.63
2018-04-11T22:25:46.752Z,64.95
2018-04-11T22:28:15.942Z,65.68
2018-04-11T22:30:45.058Z,64.78
2018-04-11T22:33:14.114Z,64.33
2018-04-11T22:35:43.240Z,65.10
2018-04-11T22:38:12.683Z,63.59
2018-04-11T22:40:41.726Z,63.20
2018-04-11T22:43:11.677Z,62.33
2018-04-11T22:45:40.767Z,61.87
2018-04-11T22:50:45.585Z,59.52
2018-04-11T22:53:14.705Z,59.14
2018-04-11T22:55:43.698Z,60.06
2018-04-11T22:58:13.682Z,60.88
2018-04-11T23:00:42.727Z,61.80
2018-04-11T23:03:11.930Z,61.13
2018-04-11T23:05:41.030Z,62.30
2018-04-11T23:10:45.860Z,61.62
2018-04-11T23:13:14.923Z,59.91
2018-04-11T23:15:44.177Z,60.21
2018-04-11T23:18:13.317Z,58.84
2018-04-11T23:20:42.351Z,58.83
2018-04-11T23:23:11.396Z,58.67
2018-04-11T23:25:40.553Z,58.28
2018-04-11T23:28:09.642Z,58.11
2018-04-11T23:30:38.670Z,57.96
2018-04-11T23:35:43.513Z,57.82
2018-04-11T23:38:12.590Z,57.91
2018-04-11T23:40:41.639Z,58.63
2018-04-11T23:43:10.688Z,58.94
2018-04-11T23:45:39.767Z,58.74
2018-04-11T23:48:08.818Z,58.80
2018-04-11T23:50:37.873Z,59.07
2018-04-11T23:53:07.057Z,58.78
2018-04-11T23:55:36.129Z,59.35
2018-04-11T23:58:05.193Z,59.35
